createdAt,value
2019-02-22T00:01:20.806Z,7.70
2019-02-22T00:06:13.757Z,7.70
2019-02-22T00:11:06.329Z,7.70
2019-02-22T00:15:58.870Z,7.70
2019-02-22T00:20:51.315Z,7.70
2019-02-22T00:25:43.800Z,7.70
2019-02-22T00:30:36.270Z,7.60
2019-02-22T00:35:28.732Z,7.70
2019-02-22T00:40:21.109Z,7.80
2019-02-22T00:45:13.766Z,7.80
2019-02-22T00:50:06.577Z,7.80
2019-02-22T00:54:58.941Z,7.80
2019-02-22T00:59:51.426Z,7.80
2019-02-22T01:04:43.861Z,7.80
2019-02-22T01:09:36.606Z,7.80
2019-02-22T01:14:29.217Z,7.90
2019-02-22T01:19:21.691Z,7.90
2019-02-22T01:24:14.133Z,7.90
2019-02-22T01:29:06.665Z,7.80
2019-02-22T01:33:59.257Z,7.80
2019-02-22T01:38:51.822Z,7.90
2019-02-22T01:43:44.173Z,7.90
2019-02-22T01:48:36.640Z,7.90
2019-02-22T01:53:28.913Z,7.90
2019-02-22T01:58:21.659Z,7.90
2019-02-22T02:03:14.445Z,8.00
2019-02-22T02:08:07.065Z,8.00
2019-02-22T02:12:59.641Z,7.90
2019-02-22T02:17:51.971Z,7.90
2019-02-22T02:22:44.527Z,7.90
2019-02-22T02:27:37.112Z,8.00
2019-02-22T02:32:29.629Z,8.10
2019-02-22T02:37:22.146Z,8.20
2019-02-22T02:42:14.718Z,8.10
2019-02-22T02:47:07.385Z,8.00
2019-02-22T02:51:59.828Z,7.80
2019-02-22T02:56:52.360Z,7.70
2019-02-22T03:01:45.202Z,7.60
2019-02-22T03:06:45.227Z,7.50
2019-02-22T03:11:37.860Z,7.50
2019-02-22T03:16:30.458Z,7.50
2019-02-22T03:21:23.127Z,7.40
2019-02-22T03:26:15.673Z,7.30
2019-02-22T03:31:08.210Z,7.30
2019-02-22T03:36:00.503Z,7.20
2019-02-22T03:40:52.905Z,7.10
2019-02-22T03:45:45.849Z,7.10
2019-02-22T03:50:38.441Z,7.00
2019-02-22T03:55:31.177Z,7.00
2019-02-22T04:00:43.373Z,6.90
2019-02-22T04:05:35.893Z,6.80
2019-02-22T04:10:28.311Z,6.90
2019-02-22T04:15:21.214Z,7.00
2019-02-22T04:20:13.665Z,7.00
2019-02-22T04:25:06.673Z,7.10
2019-02-22T04:29:59.318Z,7.10
2019-02-22T04:34:51.617Z,7.10
2019-02-22T04:39:44.159Z,7.10
2019-02-22T04:44:36.772Z,7.10
2019-02-22T04:49:29.133Z,7.10
2019-02-22T04:54:21.595Z,7.10
2019-02-22T04:59:13.912Z,7.20
2019-02-22T05:04:06.050Z,7.30
2019-02-22T05:08:58.530Z,7.30
2019-02-22T05:13:51.013Z,7.30
2019-02-22T05:18:43.322Z,7.30
2019-02-22T05:23:35.821Z,7.40
2019-02-22T05:28:28.380Z,7.50
2019-02-22T05:33:20.919Z,7.60
2019-02-22T05:38:13.388Z,7.70
2019-02-22T05:43:05.987Z,7.70
2019-02-22T05:47:58.344Z,7.70
2019-02-22T05:52:50.758Z,7.60
2019-02-22T05:57:43.056Z,7.60
2019-02-22T06:02:35.529Z,7.60
2019-02-22T06:07:27.910Z,7.70
2019-02-22T06:12:20.317Z,7.70
2019-02-22T06:17:14.746Z,7.70
2019-02-22T06:22:07.131Z,7.70
2019-02-22T06:26:59.197Z,7.70
2019-02-22T06:31:51.543Z,7.70
2019-02-22T06:36:43.962Z,7.70
2019-02-22T06:41:36.285Z,7.70
2019-02-22T06:46:28.381Z,7.70
2019-02-22T06:51:20.738Z,7.70
2019-02-22T06:56:13.281Z,7.70
2019-02-22T07:01:05.557Z,7.70
2019-02-22T07:05:57.769Z,7.80
2019-02-22T07:10:52.256Z,7.90
2019-02-22T07:15:44.661Z,7.90
2019-02-22T07:20:37.053Z,7.90
2019-02-22T07:25:29.170Z,8.00
2019-02-22T07:30:21.785Z,8.20
2019-02-22T07:35:14.675Z,8.20
2019-02-22T07:40:07.453Z,8.30
2019-02-22T07:44:59.737Z,8.40
2019-02-22T07:49:52.140Z,8.50
2019-02-22T07:54:44.689Z,8.60
2019-02-22T07:59:37.305Z,8.70
2019-02-22T08:04:29.814Z,8.90
2019-02-22T08:09:22.159Z,9.00
2019-02-22T08:14:14.426Z,9.10
2019-02-22T08:19:07.129Z,9.20
2019-02-22T08:23:59.916Z,9.40
2019-02-22T08:28:52.388Z,9.60
2019-02-22T08:33:44.944Z,9.80
2019-02-22T08:38:37.523Z,9.90
2019-02-22T08:43:31.715Z,10.00
2019-02-22T08:48:23.961Z,10.10
2019-02-22T08:53:16.489Z,10.10
2019-02-22T08:58:09.277Z,10.20
2019-02-22T09:03:01.905Z,10.30
2019-02-22T09:07:54.189Z,10.30
2019-02-22T09:12:46.760Z,10.30
2019-02-22T09:17:39.705Z,10.40
2019-02-22T09:22:31.944Z,10.40
2019-02-22T09:27:24.998Z,10.50
2019-02-22T09:32:17.041Z,10.60
2019-02-22T09:37:09.460Z,10.80
2019-02-22T09:42:01.659Z,11.00
2019-02-22T09:46:54.281Z,11.10
2019-02-22T09:51:46.569Z,11.20
2019-02-22T09:56:39.105Z,11.30
2019-02-22T10:01:31.787Z,11.30
2019-02-22T10:06:24.235Z,11.30
2019-02-22T10:11:16.672Z,11.30
2019-02-22T10:16:09.228Z,11.40
2019-02-22T10:21:01.613Z,11.70
2019-02-22T10:25:54.441Z,12.00
2019-02-22T10:30:47.052Z,12.20
2019-02-22T10:35:39.574Z,12.40
2019-02-22T10:40:31.996Z,12.50
2019-02-22T10:45:24.584Z,12.50
2019-02-22T10:50:17.215Z,12.70
2019-02-22T10:55:13.938Z,12.80
2019-02-22T11:00:14.433Z,12.80
2019-02-22T11:05:06.656Z,13.10
2019-02-22T11:09:59.046Z,13.80
2019-02-22T11:14:51.789Z,13.90
2019-02-22T11:19:44.422Z,13.70
2019-02-22T11:24:37.173Z,13.30
2019-02-22T11:29:30.032Z,13.50
2019-02-22T11:34:22.701Z,14.10
2019-02-22T11:39:14.996Z,15.00
2019-02-22T11:44:07.114Z,15.10
2019-02-22T11:48:59.485Z,14.80
2019-02-22T11:53:52.047Z,14.90
2019-02-22T11:58:44.676Z,15.00
2019-02-22T12:03:37.057Z,15.00
2019-02-22T12:08:29.878Z,16.40
2019-02-22T12:13:22.249Z,16.20
2019-02-22T12:18:14.605Z,16.30
2019-02-22T12:23:07.086Z,16.50
2019-02-22T12:27:59.657Z,18.10
2019-02-22T12:32:52.017Z,17.90
2019-02-22T12:37:44.301Z,17.10
2019-02-22T12:42:36.930Z,16.80
2019-02-22T12:47:29.509Z,17.60
2019-02-22T12:52:21.953Z,17.40
2019-02-22T12:57:14.853Z,17.80
2019-02-22T13:02:07.638Z,17.20
2019-02-22T13:06:59.925Z,16.40
2019-02-22T13:11:52.507Z,16.20
2019-02-22T13:16:45.226Z,16.60
2019-02-22T13:21:37.497Z,16.30
2019-02-22T13:26:30.000Z,15.50
2019-02-22T13:31:29.773Z,15.10
2019-02-22T13:36:16.454Z,15.10
2019-02-22T13:41:09.003Z,15.50
2019-02-22T13:46:01.469Z,16.50
2019-02-22T13:50:54.046Z,17.60
2019-02-22T13:55:47.045Z,17.70
2019-02-22T14:00:39.533Z,17.40
2019-02-22T14:05:32.925Z,16.30
2019-02-22T14:10:26.037Z,15.70
2019-02-22T14:15:18.960Z,15.40
2019-02-22T14:20:11.557Z,15.10
2019-02-22T14:25:04.969Z,14.70
2019-02-22T14:29:57.309Z,14.30
2019-02-22T14:34:49.860Z,14.10
2019-02-22T14:39:42.101Z,14.00
2019-02-22T14:44:34.453Z,13.90
2019-02-22T14:49:27.165Z,13.80
2019-02-22T14:54:19.617Z,13.70
2019-02-22T14:59:12.338Z,13.60
2019-02-22T15:04:06.144Z,13.60
2019-02-22T15:08:58.787Z,13.60
2019-02-22T15:13:50.686Z,13.50
2019-02-22T15:18:43.277Z,13.50
2019-02-22T15:23:38.805Z,13.40
2019-02-22T15:28:31.653Z,13.40
2019-02-22T15:33:24.173Z,13.40
2019-02-22T15:38:16.597Z,13.30
2019-02-22T15:43:09.034Z,13.30
2019-02-22T15:48:01.534Z,13.20
2019-02-22T15:52:53.725Z,13.20
2019-02-22T15:57:46.534Z,13.20
2019-02-22T16:02:38.893Z,13.10
2019-02-22T16:07:31.689Z,13.10
2019-02-22T16:12:23.817Z,13.00
2019-02-22T16:17:16.382Z,12.90
2019-02-22T16:22:08.845Z,12.80
2019-02-22T16:27:04.073Z,12.80
2019-02-22T16:31:56.594Z,12.80
2019-02-22T16:36:49.141Z,12.80
2019-02-22T16:41:41.591Z,12.90
2019-02-22T16:46:35.321Z,12.80
2019-02-22T16:51:27.948Z,12.70
2019-02-22T16:56:20.306Z,12.70
2019-02-22T17:01:13.053Z,12.50
2019-02-22T17:06:05.645Z,12.30
2019-02-22T17:10:58.417Z,12.20
2019-02-22T17:15:50.765Z,12.00
2019-02-22T17:20:43.444Z,11.90
2019-02-22T17:25:36.010Z,11.90
2019-02-22T17:30:28.562Z,11.90
2019-02-22T17:35:20.899Z,11.80
2019-02-22T17:40:24.534Z,11.60
2019-02-22T17:45:17.069Z,11.50
2019-02-22T17:50:10.512Z,11.40
2019-02-22T17:55:02.824Z,11.30
2019-02-22T17:59:55.537Z,11.20
2019-02-22T18:04:48.182Z,11.10
2019-02-22T18:09:41.425Z,10.90
2019-02-22T18:14:34.013Z,10.90
2019-02-22T18:19:26.565Z,10.70
2019-02-22T18:24:18.804Z,10.70
2019-02-22T18:29:11.411Z,10.70
2019-02-22T18:34:04.112Z,10.60
2019-02-22T18:38:56.448Z,10.50
2019-02-22T18:43:49.200Z,10.50
2019-02-22T18:48:41.889Z,10.30
2019-02-22T18:53:34.293Z,10.20
2019-02-22T18:58:26.585Z,10.10
2019-02-22T19:03:19.073Z,10.00
2019-02-22T19:08:11.395Z,10.00
2019-02-22T19:13:04.914Z,9.80
2019-02-22T19:17:57.302Z,9.80
2019-02-22T19:22:49.836Z,9.70
2019-02-22T19:27:42.176Z,9.60
2019-02-22T19:32:34.182Z,9.60
2019-02-22T19:37:26.805Z,9.40
2019-02-22T19:42:19.518Z,9.20
2019-02-22T19:47:11.874Z,8.90
2019-02-22T19:52:04.304Z,8.70
2019-02-22T19:56:57.003Z,8.40
2019-02-22T20:01:49.306Z,8.10
2019-02-22T20:06:41.723Z,7.80
2019-02-22T20:11:34.372Z,7.50
2019-02-22T20:16:27.181Z,7.20
2019-02-22T20:21:19.644Z,7.00
2019-02-22T20:26:12.348Z,6.80
2019-02-22T20:31:04.976Z,6.70
2019-02-22T20:35:57.763Z,6.50
2019-02-22T20:40:50.596Z,6.40
2019-02-22T20:45:43.353Z,6.30
2019-02-22T20:50:35.812Z,6.30
2019-02-22T20:55:28.523Z,6.20
2019-02-22T21:00:25.869Z,6.00
2019-02-22T21:05:18.498Z,5.90
2019-02-22T21:10:18.752Z,5.80
2019-02-22T21:15:12.546Z,5.70
2019-02-22T21:20:07.894Z,5.60
2019-02-22T21:25:00.360Z,5.50
2019-02-22T21:29:52.949Z,5.40
2019-02-22T21:34:45.249Z,5.20
2019-02-22T21:39:41.235Z,5.10
2019-02-22T21:44:34.025Z,5.10
2019-02-22T21:49:26.885Z,5.00
2019-02-22T21:54:38.677Z,5.00
2019-02-22T21:59:31.285Z,5.00
2019-02-22T22:04:23.970Z,5.00
2019-02-22T22:09:16.698Z,4.90
2019-02-22T22:14:09.305Z,4.90
2019-02-22T22:19:01.956Z,4.90
2019-02-22T22:23:54.918Z,4.90
2019-02-22T22:28:47.223Z,4.90
2019-02-22T22:33:39.691Z,4.90
2019-02-22T22:38:32.039Z,5.00
2019-02-22T22:43:24.761Z,5.00
2019-02-22T22:48:17.118Z,4.80
2019-02-22T22:53:09.580Z,4.60
2019-02-22T22:58:02.298Z,4.50
2019-02-22T23:02:55.024Z,4.40
2019-02-22T23:07:47.382Z,4.30
2019-02-22T23:12:40.314Z,4.20
2019-02-22T23:17:32.754Z,4.00
2019-02-22T23:22:25.523Z,3.90
2019-02-22T23:27:17.981Z,3.80
2019-02-22T23:32:10.501Z,3.70
2019-02-22T23:37:03.079Z,3.60
2019-02-22T23:41:55.421Z,3.40
2019-02-22T23:46:48.105Z,3.30
2019-02-22T23:51:40.700Z,3.20
2019-02-22T23:56:33.109Z,3.20
